Time;durP1;ratioP1;P1;durP2;ratioP2;P2;SDS_P1;SDS_P2;PMS_P1;PMS_P2;Temp;Humidity;BMP_temperature;BMP_pressure;BME280_temperature;BME280_humidity;BME280_pressure;Samples;Min_cycle;Max_cycle;Signal;HPM_P1;HPM_P2
2022/09/05 00:02:25;;;;;;;0.00;0.00;;;21.30;96.40;;;;;;4995417;28;20494;-69
2022/09/05 00:05:28;;;;;;;0.00;0.00;;;21.30;96.50;;;;;;4992142;28;20054;-69
2022/09/05 00:08:11;;;;;;;0.00;0.00;;;21.20;96.80;;;;;;4992306;28;20153;-69
2022/09/05 00:10:55;;;;;;;0.10;0.10;;;21.20;96.60;;;;;;4992588;28;20050;-69
2022/09/05 00:13:26;;;;;;;0.00;0.00;;;21.20;96.60;;;;;;5002147;28;20113;-69
2022/09/05 00:16:19;;;;;;;0.80;0.47;;;21.20;96.70;;;;;;4992476;28;20051;-69
2022/09/05 00:19:23;;;;;;;0.13;0.13;;;21.10;96.70;;;;;;4992338;28;20054;-69
2022/09/05 00:22:04;;;;;;;;;;;21.10;96.80;;;;;;4992519;28;20042;-69
2022/09/05 00:24:32;;;;;;;0.20;0.20;;;21.10;96.80;;;;;;5000383;28;19933;-69
2022/09/05 00:27:38;;;;;;;0.10;0.10;;;21.10;96.80;;;;;;4995978;28;20042;-68
2022/09/05 00:30:09;;;;;;;2.53;0.45;;;20.90;97.00;;;;;;4993152;28;20041;-69
2022/09/05 00:33:00;;;;;;;1.95;0.80;;;20.90;97.00;;;;;;4994037;28;20512;-69
2022/09/05 00:35:59;;;;;;;0.13;0.10;;;20.90;97.00;;;;;;4993802;28;20050;-69
2022/09/05 00:38:27;;;;;;;0.20;0.20;;;21.00;97.00;;;;;;4991928;28;20081;-68
2022/09/05 00:41:01;;;;;;;0.65;0.40;;;20.90;97.00;;;;;;4999640;28;20097;-69
2022/09/05 00:43:48;;;;;;;0.25;0.25;;;20.90;97.10;;;;;;4995008;28;20474;-69
2022/09/05 00:46:21;;;;;;;0.10;0.10;;;20.90;97.10;;;;;;4992000;28;20053;-69
2022/09/05 00:49:01;;;;;;;0.10;0.10;;;20.80;97.30;;;;;;4996691;28;20109;-69
2022/09/05 00:52:14;;;;;;;0.20;0.20;;;20.80;97.20;;;;;;4996463;28;20062;-69
2022/09/05 00:54:58;;;;;;;0.13;0.13;;;20.80;97.30;;;;;;4983496;28;20105;-69
2022/09/05 00:58:20;;;;;;;0.38;0.38;;;20.80;97.30;;;;;;4990892;28;20065;-69
2022/09/05 01:00:52;;;;;;;0.20;0.20;;;20.80;97.20;;;;;;4963216;28;20273;-69
2022/09/05 01:03:50;;;;;;;0.70;0.25;;;20.70;97.40;;;;;;4987750;28;20153;-69
2022/09/05 01:06:15;;;;;;;0.10;0.10;;;20.60;97.50;;;;;;4965879;28;20153;-69
2022/09/05 01:09:05;;;;;;;0.30;0.30;;;20.60;97.60;;;;;;4991474;28;20125;-69
2022/09/05 01:11:42;;;;;;;0.10;0.10;;;20.60;97.70;;;;;;5005342;28;20089;-69
2022/09/05 01:14:33;;;;;;;0.00;0.00;;;20.50;97.60;;;;;;4993695;28;20050;-68
2022/09/05 01:17:24;;;;;;;0.10;0.10;;;20.50;97.70;;;;;;4990831;28;20061;-69
2022/09/05 01:20:16;;;;;;;0.43;0.43;;;20.50;97.70;;;;;;4997161;28;20065;-69
2022/09/05 01:22:52;;;;;;;0.52;0.40;;;20.50;97.90;;;;;;5003480;28;20049;-69
2022/09/05 01:25:49;;;;;;;0.03;0.03;;;20.40;98.10;;;;;;4992485;28;20398;-69
2022/09/05 01:28:52;;;;;;;0.00;0.00;;;20.40;97.80;;;;;;4996937;28;20430;-69
2022/09/05 01:31:41;;;;;;;0.20;0.20;;;20.40;97.90;;;;;;4989476;28;20057;-69
2022/09/05 01:34:11;;;;;;;0.52;0.52;;;20.30;97.90;;;;;;4999742;28;20046;-69
2022/09/05 01:36:56;;;;;;;0.63;0.20;;;20.30;98.20;;;;;;4993088;28;20046;-69
2022/09/05 01:39:37;;;;;;;0.20;0.20;;;20.30;98.20;;;;;;4994769;28;20054;-69
2022/09/05 01:42:35;;;;;;;0.10;0.10;;;20.30;98.20;;;;;;4992171;28;20050;-69
2022/09/05 01:45:05;;;;;;;0.20;0.20;;;20.20;98.20;;;;;;4999919;28;20048;-69
2022/09/05 01:48:01;;;;;;;0.00;0.00;;;20.20;98.10;;;;;;4990368;28;20090;-69
2022/09/05 01:50:49;;;;;;;0.00;0.00;;;20.20;98.20;;;;;;4990044;28;20069;-69
2022/09/05 01:53:24;;;;;;;0.00;0.00;;;20.20;98.20;;;;;;4989706;28;20050;-69
2022/09/05 01:56:01;;;;;;;0.10;0.10;;;20.20;98.20;;;;;;4989338;28;20097;-69
2022/09/05 01:58:51;;;;;;;0.10;0.10;;;20.10;98.40;;;;;;4990096;28;20061;-69
2022/09/05 02:01:26;;;;;;;0.15;0.15;;;20.10;98.30;;;;;;4993283;28;20062;-70
2022/09/05 02:04:14;;;;;;;0.17;0.17;;;20.10;98.50;;;;;;5006021;28;20082;-69
2022/09/05 02:06:58;;;;;;;0.10;0.10;;;20.00;98.50;;;;;;4990035;28;20050;-69
2022/09/05 02:09:36;;;;;;;0.35;0.20;;;20.00;98.50;;;;;;4991700;28;20402;-69
2022/09/05 02:12:13;;;;;;;0.00;0.00;;;20.00;98.60;;;;;;4989428;28;20054;-69
2022/09/05 02:14:42;;;;;;;0.17;0.17;;;19.90;98.70;;;;;;4994446;28;20042;-69
2022/09/05 02:17:39;;;;;;;0.10;0.10;;;19.90;98.70;;;;;;5008223;28;20515;-68
2022/09/05 02:20:27;;;;;;;0.10;0.10;;;19.90;98.80;;;;;;4988838;28;20458;-69
2022/09/05 02:23:22;;;;;;;0.00;0.00;;;19.90;98.70;;;;;;4993614;28;20077;-69
2022/09/05 02:26:05;;;;;;;0.00;0.00;;;19.80;98.90;;;;;;4996599;28;20054;-69
2022/09/05 02:28:31;;;;;;;0.28;0.28;;;19.80;99.00;;;;;;5005694;28;20068;-68
2022/09/05 02:31:03;;;;;;;0.30;0.30;;;19.70;99.00;;;;;;5006832;28;20505;-69
2022/09/05 02:33:36;;;;;;;0.00;0.00;;;19.70;99.10;;;;;;4998546;28;20061;-68
2022/09/05 02:36:21;;;;;;;0.03;0.03;;;19.60;99.20;;;;;;5003850;28;20495;-68
2022/09/05 02:39:07;;;;;;;1.65;0.22;;;19.70;99.30;;;;;;5006394;28;20099;-69
2022/09/05 02:41:40;;;;;;;0.20;0.20;;;19.60;99.20;;;;;;5002612;28;20046;-69
2022/09/05 02:44:12;;;;;;;0.25;0.25;;;19.60;99.30;;;;;;4997834;28;20056;-69
2022/09/05 02:46:58;;;;;;;0.20;0.20;;;19.60;99.40;;;;;;4989515;28;20444;-69
2022/09/05 02:49:44;;;;;;;0.10;0.10;;;19.60;99.40;;;;;;4996909;28;20080;-69
2022/09/05 02:52:14;;;;;;;0.10;0.10;;;19.50;99.40;;;;;;4996701;28;20498;-69
2022/09/05 02:54:43;;;;;;;0.20;0.20;;;19.40;99.50;;;;;;4995495;28;20046;-69
2022/09/05 02:57:30;;;;;;;4.05;1.02;;;19.40;99.70;;;;;;5010032;28;20049;-69
2022/09/05 03:00:10;;;;;;;0.13;0.13;;;19.40;99.70;;;;;;5000430;28;20058;-68
2022/09/05 03:02:52;;;;;;;0.88;0.47;;;19.40;99.80;;;;;;4999754;28;20053;-69
2022/09/05 03:05:32;;;;;;;0.52;0.47;;;19.40;99.80;;;;;;4998588;28;20053;-69
2022/09/05 03:08:25;;;;;;;0.43;0.43;;;19.40;99.80;;;;;;4993030;28;20092;-69
2022/09/05 03:11:20;;;;;;;0.45;0.45;;;19.40;99.80;;;;;;4995252;28;20061;-69
2022/09/05 03:14:24;;;;;;;13.88;0.55;;;19.30;99.90;;;;;;4989867;28;20045;-69
2022/09/05 03:17:08;;;;;;;1.13;0.73;;;19.30;99.90;;;;;;4986046;28;20070;-68
2022/09/05 03:20:04;;;;;;;1.15;0.95;;;19.20;99.90;;;;;;4987206;28;20035;-69
2022/09/05 03:22:59;;;;;;;0.10;0.10;;;19.20;99.90;;;;;;4991343;28;20058;-69
2022/09/05 03:25:59;;;;;;;0.10;0.10;;;19.20;99.90;;;;;;5003248;28;20046;-69
2022/09/05 03:29:03;;;;;;;5.13;0.68;;;19.10;99.90;;;;;;5008323;28;20077;-69
2022/09/05 03:32:06;;;;;;;0.13;0.13;;;19.10;99.90;;;;;;4999599;28;20057;-69
2022/09/05 03:34:52;;;;;;;0.03;0.03;;;19.10;99.90;;;;;;4992892;28;20573;-69
2022/09/05 03:37:44;;;;;;;0.20;0.20;;;19.00;99.90;;;;;;5006598;28;20054;-69
2022/09/05 03:40:35;;;;;;;0.15;0.15;;;19.00;99.90;;;;;;4997785;28;20478;-69
2022/09/05 03:43:19;;;;;;;0.20;0.20;;;19.00;99.90;;;;;;4991575;28;20054;-69
2022/09/05 03:46:03;;;;;;;0.20;0.20;;;19.00;99.90;;;;;;5003634;28;20037;-69
2022/09/05 03:48:47;;;;;;;;;;;18.90;99.90;;;;;;4995964;28;20887;-69
2022/09/05 03:51:18;;;;;;;;;;;18.90;99.90;;;;;;4994188;28;19956;-69
2022/09/05 03:54:10;;;;;;;0.75;0.30;;;18.90;99.90;;;;;;4991082;28;19929;-69
2022/09/05 03:56:57;;;;;;;0.20;0.20;;;18.80;99.90;;;;;;4995833;28;20076;-68
2022/09/05 03:59:42;;;;;;;0.00;0.00;;;18.80;99.90;;;;;;5011522;28;20049;-68
2022/09/05 04:02:13;;;;;;;0.55;0.52;;;18.80;99.90;;;;;;5007695;28;20057;-68
2022/09/05 04:04:41;;;;;;;1.67;0.55;;;18.80;99.90;;;;;;5009860;28;20045;-69
2022/09/05 04:07:28;;;;;;;0.90;0.52;;;18.70;99.90;;;;;;4999381;28;20054;-69
2022/09/05 04:10:29;;;;;;;0.00;0.00;;;18.70;99.90;;;;;;4991480;28;20054;-68
2022/09/05 04:13:21;;;;;;;0.10;0.10;;;18.70;99.90;;;;;;5007545;28;20136;-69
2022/09/05 04:16:01;;;;;;;0.30;0.15;;;18.70;99.90;;;;;;5008386;28;20093;-68
2022/09/05 04:18:37;;;;;;;0.75;0.75;;;18.60;99.90;;;;;;5010276;28;20073;-68
2022/09/05 04:21:26;;;;;;;0.30;0.20;;;18.50;99.90;;;;;;5004765;28;20046;-68
2022/09/05 04:24:10;;;;;;;0.88;0.88;;;18.50;99.90;;;;;;4998251;28;20060;-68
2022/09/05 04:27:26;;;;;;;0.10;0.10;;;18.50;99.90;;;;;;5008322;28;20069;-69
2022/09/05 04:30:16;;;;;;;0.00;0.00;;;18.50;99.90;;;;;;5008430;28;20050;-69
2022/09/05 04:33:14;;;;;;;0.93;0.60;;;18.50;99.90;;;;;;5007646;28;20057;-69
2022/09/05 04:35:54;;;;;;;0.22;0.22;;;18.40;99.90;;;;;;5009023;28;20131;-69
2022/09/05 04:38:41;;;;;;;0.40;0.40;;;18.40;99.90;;;;;;5009822;28;20066;-69
2022/09/05 04:41:18;;;;;;;0.38;0.38;;;18.30;99.90;;;;;;5007387;28;20060;-69
2022/09/05 04:43:46;;;;;;;0.45;0.45;;;18.40;99.90;;;;;;5010481;28;20088;-69
2022/09/05 04:46:39;;;;;;;0.38;0.38;;;18.40;99.90;;;;;;5010786;28;20046;-69
2022/09/05 04:49:06;;;;;;;0.00;0.00;;;18.30;99.90;;;;;;4999845;28;20498;-69
2022/09/05 04:52:05;;;;;;;0.45;0.45;;;18.30;99.90;;;;;;5004770;28;20178;-69
2022/09/05 04:54:41;;;;;;;11.40;0.98;;;18.30;99.90;;;;;;5006876;28;20444;-71
2022/09/05 04:57:07;;;;;;;0.43;0.43;;;18.30;99.90;;;;;;5001577;28;20058;-68
2022/09/05 04:59:47;;;;;;;0.03;0.03;;;18.20;99.90;;;;;;5002903;28;20046;-68
2022/09/05 05:02:24;;;;;;;1.17;0.65;;;18.20;99.90;;;;;;5011402;28;20128;-69
2022/09/05 05:05:00;;;;;;;0.17;0.17;;;18.30;99.90;;;;;;4998324;28;20100;-69
2022/09/05 05:07:43;;;;;;;0.30;0.28;;;18.30;99.90;;;;;;5000628;28;20034;-70
2022/09/05 05:10:20;;;;;;;0.08;0.08;;;18.20;99.90;;;;;;5007859;28;20050;-68
2022/09/05 05:13:10;;;;;;;0.20;0.20;;;18.20;99.90;;;;;;5008390;28;20046;-70
2022/09/05 05:15:59;;;;;;;0.05;0.05;;;18.20;99.90;;;;;;5004183;28;20050;-70
2022/09/05 05:18:39;;;;;;;0.10;0.10;;;18.10;99.90;;;;;;5001177;28;20037;-70
2022/09/05 05:21:12;;;;;;;0.13;0.13;;;18.20;99.90;;;;;;5000831;28;20184;-70
2022/09/05 05:23:42;;;;;;;1.30;0.70;;;18.10;99.90;;;;;;5010566;28;20049;-70
2022/09/05 05:26:25;;;;;;;0.10;0.10;;;18.20;99.90;;;;;;5000655;28;20392;-70
2022/09/05 05:29:01;;;;;;;3.25;0.90;;;18.20;99.90;;;;;;5006124;28;20066;-70
2022/09/05 05:31:33;;;;;;;0.08;0.08;;;18.20;99.90;;;;;;5002601;28;20498;-70
2022/09/05 05:34:14;;;;;;;0.57;0.38;;;18.20;99.90;;;;;;5006320;28;20046;-70
2022/09/05 05:36:51;;;;;;;0.90;0.70;;;18.20;99.90;;;;;;5005096;28;20507;-70
2022/09/05 05:39:24;;;;;;;0.13;0.13;;;18.20;99.90;;;;;;5002038;28;20073;-70
2022/09/05 05:41:53;;;;;;;;;;;18.20;99.90;;;;;;4998144;28;20050;-71
2022/09/05 05:44:50;;;;;;;0.50;0.50;;;18.30;99.90;;;;;;5002088;28;19970;-70
2022/09/05 05:47:30;;;;;;;0.63;0.63;;;18.40;99.90;;;;;;5006520;28;20058;-70
2022/09/05 05:50:17;;;;;;;0.57;0.57;;;18.40;99.90;;;;;;5003664;28;20045;-70
2022/09/05 05:52:52;;;;;;;2.17;0.65;;;18.40;99.90;;;;;;5010524;28;20065;-70
2022/09/05 05:55:31;;;;;;;0.17;0.17;;;18.40;99.90;;;;;;5008279;28;20401;-71
2022/09/05 05:58:15;;;;;;;0.10;0.10;;;18.50;99.90;;;;;;5004366;28;20042;-71
2022/09/05 06:00:53;;;;;;;0.45;0.38;;;18.50;99.90;;;;;;4991240;28;20156;-71
2022/09/05 06:03:37;;;;;;;0.38;0.38;;;18.50;99.90;;;;;;5006189;28;20132;-70
2022/09/05 06:06:30;;;;;;;0.10;0.10;;;18.50;99.90;;;;;;5001785;28;20046;-70
2022/09/05 06:09:42;;;;;;;0.20;0.20;;;18.50;99.90;;;;;;5000743;28;20081;-70
2022/09/05 06:12:32;;;;;;;0.00;0.00;;;18.50;99.90;;;;;;5009590;28;20493;-70
2022/09/05 06:15:49;;;;;;;0.00;0.00;;;18.60;99.90;;;;;;5003031;28;20053;-70
2022/09/05 06:18:52;;;;;;;0.05;0.05;;;18.70;99.90;;;;;;4992119;28;20101;-70
2022/09/05 06:21:41;;;;;;;0.10;0.10;;;18.80;99.90;;;;;;4999386;28;20577;-70
2022/09/05 06:24:56;;;;;;;0.20;0.20;;;18.80;99.90;;;;;;5004900;28;20057;-70
2022/09/05 06:27:45;;;;;;;0.77;0.77;;;18.80;99.90;;;;;;4997600;28;20568;-70
2022/09/05 06:30:19;;;;;;;0.20;0.20;;;18.80;99.90;;;;;;5000311;28;20089;-70
2022/09/05 06:33:15;;;;;;;0.10;0.10;;;18.90;99.90;;;;;;4989523;28;20077;-71
2022/09/05 06:35:59;;;;;;;0.08;0.08;;;19.00;99.90;;;;;;5001420;28;20143;-71
2022/09/05 06:38:43;;;;;;;0.05;0.05;;;19.00;99.90;;;;;;5002112;28;20702;-71
2022/09/05 06:41:33;;;;;;;0.00;0.00;;;19.10;99.90;;;;;;4992783;28;20100;-71
2022/09/05 06:44:23;;;;;;;0.17;0.13;;;19.10;99.90;;;;;;4988943;28;20050;-71
2022/09/05 06:46:52;;;;;;;0.10;0.10;;;19.10;99.90;;;;;;4989896;28;20050;-71
2022/09/05 06:49:44;;;;;;;0.20;0.20;;;19.10;99.90;;;;;;4998414;28;20057;-71
2022/09/05 06:52:53;;;;;;;0.40;0.40;;;19.20;99.90;;;;;;4991243;28;20077;-70
2022/09/05 06:55:57;;;;;;;0.00;0.00;;;19.30;99.90;;;;;;4976631;28;20064;-71
2022/09/05 06:58:28;;;;;;;0.10;0.10;;;19.30;99.90;;;;;;5007416;28;20046;-70
2022/09/05 07:00:56;;;;;;;0.32;0.32;;;19.40;99.90;;;;;;5007713;28;20131;-70
2022/09/05 07:04:00;;;;;;;0.00;0.00;;;19.50;99.90;;;;;;5001702;28;20058;-71
2022/09/05 07:06:59;;;;;;;0.60;0.55;;;19.60;99.90;;;;;;4989904;28;20422;-70
2022/09/05 07:09:35;;;;;;;0.68;0.68;;;19.70;99.90;;;;;;4995323;28;20041;-70
2022/09/05 07:12:12;;;;;;;0.10;0.10;;;19.70;99.90;;;;;;4993178;28;20121;-70
2022/09/05 07:15:12;;;;;;;0.70;0.32;;;19.80;99.90;;;;;;5001286;28;20049;-71
2022/09/05 07:18:00;;;;;;;0.10;0.10;;;19.90;99.90;;;;;;4994891;28;20058;-71
2022/09/05 07:20:34;;;;;;;0.30;0.30;;;20.00;99.90;;;;;;4987801;28;20078;-70
2022/09/05 07:23:30;;;;;;;0.17;0.17;;;20.00;99.90;;;;;;5000850;28;20057;-71
2022/09/05 07:25:56;;;;;;;0.15;0.15;;;20.10;99.90;;;;;;4998679;28;20398;-71
2022/09/05 07:28:23;;;;;;;0.08;0.08;;;20.10;99.90;;;;;;5001911;28;20030;-71
2022/09/05 07:30:59;;;;;;;0.00;0.00;;;20.20;99.90;;;;;;5000165;28;20054;-71
2022/09/05 07:33:28;;;;;;;0.20;0.20;;;20.30;99.90;;;;;;4993152;28;20046;-72
2022/09/05 07:36:04;;;;;;;0.00;0.00;;;20.40;99.90;;;;;;4995235;28;20058;-71
2022/09/05 07:38:33;;;;;;;0.30;0.30;;;20.40;99.90;;;;;;4998978;28;20030;-72
2022/09/05 07:41:25;;;;;;;0.22;0.22;;;20.50;99.90;;;;;;4994764;28;20124;-72
2022/09/05 07:44:01;;;;;;;0.25;0.25;;;20.60;99.90;;;;;;5002402;28;20054;-72
2022/09/05 07:46:32;;;;;;;0.20;0.20;;;20.70;99.90;;;;;;4998092;28;20056;-72
2022/09/05 07:49:06;;;;;;;0.45;0.30;;;20.80;99.90;;;;;;5000684;28;20054;-72
2022/09/05 07:51:34;;;;;;;0.20;0.20;;;20.90;99.90;;;;;;5013716;28;20505;-72
2022/09/05 07:54:11;;;;;;;0.03;0.03;;;20.90;99.90;;;;;;5009401;28;20402;-72
2022/09/05 07:56:41;;;;;;;0.00;0.00;;;20.90;99.90;;;;;;4997541;28;20054;-72
2022/09/05 07:59:10;;;;;;;2.28;0.25;;;20.90;99.90;;;;;;4998303;28;20140;-72
2022/09/05 08:01:39;;;;;;;0.43;0.43;;;21.00;99.90;;;;;;5010143;28;20081;-72
2022/09/05 08:04:04;;;;;;;0.03;0.03;;;21.10;99.90;;;;;;4996607;28;20058;-72
2022/09/05 08:06:30;;;;;;;0.10;0.10;;;21.20;99.90;;;;;;5002937;28;20041;-72
2022/09/05 08:09:05;;;;;;;0.00;0.00;;;21.20;99.90;;;;;;5006030;28;20088;-72
2022/09/05 08:11:34;;;;;;;0.15;0.08;;;21.30;99.90;;;;;;5010979;28;20049;-72
2022/09/05 08:14:10;;;;;;;0.35;0.35;;;21.30;99.90;;;;;;5005254;28;20148;-73
2022/09/05 08:16:38;;;;;;;0.05;0.05;;;21.40;99.90;;;;;;5011049;28;20073;-71
2022/09/05 08:19:30;;;;;;;0.20;0.20;;;21.50;99.90;;;;;;5000246;28;20053;-72
2022/09/05 08:22:01;;;;;;;0.33;0.33;;;21.60;99.90;;;;;;5004535;28;20046;-72
2022/09/05 08:24:32;;;;;;;0.22;0.20;;;21.70;99.90;;;;;;4992318;28;20061;-72
2022/09/05 08:27:03;;;;;;;0.80;0.43;;;21.70;99.90;;;;;;4994710;28;20054;-72
2022/09/05 08:29:42;;;;;;;1.35;1.08;;;21.80;99.90;;;;;;5008456;28;20042;-72
2022/09/05 08:32:10;;;;;;;0.00;0.00;;;21.90;99.90;;;;;;4994873;28;20054;-71
2022/09/05 08:34:58;;;;;;;0.20;0.20;;;21.90;99.90;;;;;;4995504;28;20128;-72
2022/09/05 08:37:30;;;;;;;2.75;1.17;;;22.00;99.90;;;;;;4990592;28;20053;-71
2022/09/05 08:40:06;;;;;;;0.00;0.00;;;22.00;99.90;;;;;;4997846;28;20045;-72
2022/09/05 08:42:48;;;;;;;0.10;0.10;;;22.10;99.90;;;;;;5012912;28;20393;-72
2022/09/05 08:45:35;;;;;;;0.00;0.00;;;22.20;99.90;;;;;;5002083;28;20053;-72
2022/09/05 08:48:36;;;;;;;0.10;0.10;;;22.30;99.90;;;;;;4993084;28;20038;-72
2022/09/05 08:51:29;;;;;;;0.00;0.00;;;22.50;99.90;;;;;;4992207;28;20050;-72
2022/09/05 08:54:24;;;;;;;0.10;0.10;;;22.60;99.90;;;;;;4993185;28;20043;-72
2022/09/05 08:57:05;;;;;;;0.10;0.10;;;22.80;99.90;;;;;;4992756;28;20490;-72
2022/09/05 08:59:36;;;;;;;0.35;0.35;;;23.20;99.90;;;;;;4992189;28;20565;-73
2022/09/05 09:02:37;;;;;;;0.03;0.03;;;24.00;99.90;;;;;;4989893;28;20099;-72
2022/09/05 09:05:13;;;;;;;0.10;0.10;;;24.70;99.90;;;;;;4992108;28;20125;-72
2022/09/05 09:07:52;;;;;;;0.20;0.20;;;25.40;98.80;;;;;;4992659;28;20038;-72
2022/09/05 09:10:27;;;;;;;0.25;0.25;;;26.00;97.50;;;;;;4991948;28;20056;-73
2022/09/05 09:13:02;;;;;;;0.00;0.00;;;26.30;97.90;;;;;;4991956;28;20426;-72
2022/09/05 09:16:11;;;;;;;0.10;0.10;;;26.30;97.50;;;;;;4991154;28;20089;-72
2022/09/05 09:18:46;;;;;;;0.00;0.00;;;26.50;97.30;;;;;;4990427;28;20058;-72
2022/09/05 09:21:55;;;;;;;1.20;0.75;;;26.70;97.30;;;;;;4992532;28;20038;-72
2022/09/05 09:24:51;;;;;;;0.00;0.00;;;26.80;96.20;;;;;;4989324;28;20931;-72
2022/09/05 09:27:45;;;;;;;0.00;0.00;;;27.20;96.00;;;;;;4990063;28;20388;-72
2022/09/05 09:30:12;;;;;;;0.10;0.10;;;27.40;95.50;;;;;;4991344;28;20050;-72
2022/09/05 09:32:47;;;;;;;0.00;0.00;;;27.60;95.90;;;;;;4993519;28;20050;-72
2022/09/05 09:35:31;;;;;;;0.00;0.00;;;28.00;96.00;;;;;;4992437;28;20085;-72
2022/09/05 09:38:21;;;;;;;0.00;0.00;;;28.20;96.20;;;;;;4992266;28;20096;-72
2022/09/05 09:40:49;;;;;;;0.00;0.00;;;28.40;95.70;;;;;;5002906;28;20133;-72
2022/09/05 09:43:23;;;;;;;0.17;0.17;;;28.30;95.50;;;;;;4989033;28;20046;-72
2022/09/05 09:46:14;;;;;;;0.10;0.10;;;28.40;95.90;;;;;;4991849;28;20054;-73
2022/09/05 09:49:15;;;;;;;0.10;0.10;;;28.60;95.40;;;;;;4988399;28;20054;-72
2022/09/05 09:52:18;;;;;;;1.38;0.52;;;28.60;95.40;;;;;;4990547;28;20050;-72
2022/09/05 09:55:39;;;;;;;0.00;0.00;;;28.80;95.30;;;;;;5002882;28;20046;-72
2022/09/05 09:58:28;;;;;;;0.00;0.00;;;29.00;95.30;;;;;;5011489;28;20117;-72
2022/09/05 10:00:59;;;;;;;0.28;0.28;;;29.30;94.50;;;;;;5010518;28;20058;-72
2022/09/05 10:04:00;;;;;;;0.10;0.10;;;29.50;94.60;;;;;;5008963;28;20185;-72
2022/09/05 10:06:37;;;;;;;0.30;0.30;;;29.70;94.50;;;;;;5009968;28;20064;-72
2022/09/05 10:09:37;;;;;;;0.00;0.00;;;29.60;94.20;;;;;;5010427;28;20141;-72
2022/09/05 10:12:40;;;;;;;0.10;0.10;;;29.40;94.00;;;;;;5009061;28;20050;-72
2022/09/05 10:15:23;;;;;;;2.30;0.87;;;29.40;93.50;;;;;;5010266;28;20045;-72
2022/09/05 10:18:15;;;;;;;1.30;0.52;;;29.30;93.80;;;;;;5008866;28;20339;-72
2022/09/05 10:20:58;;;;;;;0.65;0.57;;;29.20;94.40;;;;;;5010748;28;20132;-72
2022/09/05 10:23:24;;;;;;;0.10;0.10;;;29.10;93.80;;;;;;5010407;28;20049;-72
2022/09/05 10:26:13;;;;;;;0.47;0.35;;;29.00;93.70;;;;;;5010909;28;20371;-72
2022/09/05 10:29:05;;;;;;;0.03;0.03;;;29.20;93.90;;;;;;5009204;28;20104;-72
2022/09/05 10:31:55;;;;;;;0.20;0.10;;;29.20;93.80;;;;;;5006915;28;20452;-72
2022/09/05 10:34:23;;;;;;;0.08;0.08;;;29.20;93.70;;;;;;4991083;28;20137;-72
2022/09/05 10:36:53;;;;;;;0.60;0.32;;;29.20;93.60;;;;;;4990542;28;20100;-72
2022/09/05 10:39:29;;;;;;;0.00;0.00;;;29.20;93.70;;;;;;4989229;28;20386;-72
2022/09/05 10:42:05;;;;;;;0.30;0.30;;;29.20;93.60;;;;;;4996873;28;20129;-72
2022/09/05 10:44:57;;;;;;;0.43;0.43;;;29.20;94.00;;;;;;4989521;28;20042;-71
2022/09/05 10:47:31;;;;;;;0.17;0.17;;;29.30;93.30;;;;;;4990177;28;20058;-72
2022/09/05 10:50:26;;;;;;;0.00;0.00;;;29.40;93.50;;;;;;4988622;28;20104;-72
2022/09/05 10:53:00;;;;;;;0.65;0.63;;;29.40;93.60;;;;;;4985646;28;20073;-72
2022/09/05 10:56:03;;;;;;;0.82;0.10;;;29.50;93.60;;;;;;4990801;28;20475;-73
2022/09/05 10:59:03;;;;;;;0.10;0.10;;;29.60;93.70;;;;;;4995591;28;20057;-73
2022/09/05 11:01:32;;;;;;;0.00;0.00;;;29.60;92.80;;;;;;5006090;28;20104;-73
2022/09/05 11:04:06;;;;;;;0.20;0.20;;;29.60;92.80;;;;;;4989332;28;20038;-73
2022/09/05 11:06:43;;;;;;;0.00;0.00;;;29.70;92.70;;;;;;4991069;28;20479;-73
2022/09/05 11:09:26;;;;;;;0.10;0.10;;;29.90;93.10;;;;;;4990831;28;20137;-73
2022/09/05 11:12:35;;;;;;;0.00;0.00;;;30.00;92.40;;;;;;5005294;28;20156;-73
2022/09/05 11:15:13;;;;;;;0.00;0.00;;;30.00;92.20;;;;;;5010263;28;20046;-73
2022/09/05 11:17:45;;;;;;;0.25;0.17;;;30.20;92.30;;;;;;5010421;28;20072;-74
2022/09/05 11:20:27;;;;;;;;;;;30.20;92.30;;;;;;5007193;28;20049;-73
2022/09/05 11:23:02;;;;;;;0.00;0.00;;;30.40;92.20;;;;;;5010446;28;20289;-74
2022/09/05 11:25:30;;;;;;;0.65;0.65;;;30.60;92.20;;;;;;5009802;28;20497;-73
2022/09/05 11:28:01;;;;;;;0.00;0.00;;;30.70;91.70;;;;;;5010765;28;20049;-73
2022/09/05 11:30:38;;;;;;;0.00;0.00;;;30.90;91.20;;;;;;5008462;28;20169;-73
2022/09/05 11:33:37;;;;;;;0.00;0.00;;;31.10;91.80;;;;;;4993343;28;20076;-73
2022/09/05 11:36:03;;;;;;;0.10;0.10;;;31.30;91.40;;;;;;4998198;28;20053;-73
2022/09/05 11:38:58;;;;;;;0.00;0.00;;;31.00;90.70;;;;;;5009620;28;20154;-74
2022/09/05 11:42:01;;;;;;;0.00;0.00;;;31.10;91.10;;;;;;4993432;28;20034;-73
2022/09/05 11:44:35;;;;;;;0.13;0.00;;;31.10;90.60;;;;;;4989478;28;20506;-73
2022/09/05 11:47:19;;;;;;;0.00;0.00;;;30.90;90.90;;;;;;4989849;28;20046;-73
2022/09/05 11:50:05;;;;;;;0.08;0.00;;;30.50;91.10;;;;;;4989902;28;20129;-73
2022/09/05 11:52:43;;;;;;;0.00;0.00;;;30.90;91.00;;;;;;4991351;28;20038;-73
2022/09/05 11:55:39;;;;;;;0.10;0.10;;;31.00;90.20;;;;;;4989710;28;20050;-73
2022/09/05 11:58:50;;;;;;;0.10;0.10;;;31.10;90.70;;;;;;4988520;28;20101;-73
2022/09/05 12:01:40;;;;;;;0.00;0.00;;;31.20;90.10;;;;;;4987047;28;20125;-73
2022/09/05 12:04:18;;;;;;;0.00;0.00;;;30.70;89.00;;;;;;4989457;28;20046;-73
2022/09/05 12:06:47;;;;;;;0.10;0.10;;;30.60;88.80;;;;;;4989646;28;20506;-73
2022/09/05 12:09:33;;;;;;;0.20;0.20;;;30.80;88.90;;;;;;4989783;28;20046;-73
2022/09/05 12:12:26;;;;;;;0.10;0.10;;;31.30;90.30;;;;;;4989423;28;20080;-74
2022/09/05 12:15:22;;;;;;;0.00;0.00;;;31.60;88.80;;;;;;4990350;28;20057;-73
2022/09/05 12:18:10;;;;;;;0.03;0.03;;;32.00;88.50;;;;;;4994308;28;20054;-74
2022/09/05 12:21:11;;;;;;;0.08;0.08;;;31.60;88.70;;;;;;4992648;28;20383;-73
2022/09/05 12:23:49;;;;;;;0.00;0.00;;;30.90;88.50;;;;;;4992441;28;20064;-73
2022/09/05 12:26:24;;;;;;;0.00;0.00;;;30.50;88.20;;;;;;4992223;28;20046;-73
2022/09/05 12:29:10;;;;;;;0.00;0.00;;;30.40;88.90;;;;;;4991824;28;20065;-73
2022/09/05 12:31:45;;;;;;;0.03;0.03;;;30.10;88.50;;;;;;4995697;28;20046;-73
2022/09/05 12:34:17;;;;;;;1.27;1.10;;;29.80;88.60;;;;;;4993390;28;20050;-73
2022/09/05 12:36:47;;;;;;;0.00;0.00;;;29.60;88.60;;;;;;4992865;28;20126;-73
2022/09/05 12:39:38;;;;;;;0.00;0.00;;;29.60;89.80;;;;;;4992878;28;20073;-73
2022/09/05 12:42:37;;;;;;;0.08;0.08;;;29.80;90.00;;;;;;4993031;28;20105;-73
2022/09/05 12:45:19;;;;;;;0.00;0.00;;;30.10;88.20;;;;;;4992470;28;20108;-74
2022/09/05 12:48:09;;;;;;;0.00;0.00;;;30.70;88.00;;;;;;4991009;28;20061;-73
2022/09/05 12:50:41;;;;;;;0.75;0.57;;;30.30;90.00;;;;;;5010144;28;20132;-72
2022/09/05 12:53:12;;;;;;;0.00;0.00;;;30.30;88.50;;;;;;5011530;28;20038;-73
2022/09/05 12:55:46;;;;;;;0.00;0.00;;;30.30;85.80;;;;;;5012513;28;20050;-73
2022/09/05 12:58:29;;;;;;;0.00;0.00;;;30.40;88.00;;;;;;5009467;28;20046;-73
2022/09/05 13:01:24;;;;;;;0.10;0.10;;;30.60;86.20;;;;;;5011935;28;20112;-74
2022/09/05 13:04:00;;;;;;;0.10;0.10;;;30.70;87.60;;;;;;5010733;28;20061;-73
2022/09/05 13:06:39;;;;;;;0.00;0.00;;;30.90;87.20;;;;;;4991972;28;20042;-73
2022/09/05 13:09:24;;;;;;;4.53;0.52;;;30.80;85.50;;;;;;4992893;28;20146;-73
2022/09/05 13:12:10;;;;;;;0.32;0.20;;;30.60;85.40;;;;;;4992269;28;20082;-73
2022/09/05 13:14:41;;;;;;;0.00;0.00;;;30.50;85.80;;;;;;4989750;28;20470;-73
2022/09/05 13:17:09;;;;;;;0.00;0.00;;;30.40;88.20;;;;;;4992353;28;20168;-73
2022/09/05 13:19:49;;;;;;;0.10;0.10;;;30.40;87.30;;;;;;4990593;28;20056;-73
2022/09/05 13:22:19;;;;;;;0.00;0.00;;;30.50;88.40;;;;;;4997800;28;20041;-73
2022/09/05 13:24:52;;;;;;;0.85;0.38;;;30.80;87.90;;;;;;5011072;28;20401;-74
2022/09/05 13:27:26;;;;;;;0.10;0.10;;;31.00;86.10;;;;;;5009731;28;20050;-73
2022/09/05 13:29:57;;;;;;;0.00;0.00;;;31.10;87.50;;;;;;5011598;28;20080;-75
2022/09/05 13:32:28;;;;;;;0.00;0.00;;;31.10;84.70;;;;;;5011737;28;20041;-75
2022/09/05 13:35:03;;;;;;;0.32;0.32;;;31.40;83.30;;;;;;5005134;28;20081;-74
2022/09/05 13:37:36;;;;;;;0.00;0.00;;;31.60;84.90;;;;;;4992299;28;20073;-74
2022/09/05 13:40:10;;;;;;;0.03;0.03;;;31.90;83.80;;;;;;4998435;28;20041;-74
2022/09/05 13:42:43;;;;;;;0.00;0.00;;;32.10;82.80;;;;;;4989631;28;20148;-74
2022/09/05 13:45:17;;;;;;;0.10;0.10;;;31.90;80.90;;;;;;4991902;28;20030;-76
2022/09/05 13:47:51;;;;;;;0.00;0.00;;;31.80;80.10;;;;;;4991476;28;20133;-74
2022/09/05 13:50:28;;;;;;;1.95;0.63;;;31.40;81.90;;;;;;4994051;28;20097;-75
2022/09/05 13:52:59;;;;;;;0.08;0.08;;;31.40;80.00;;;;;;4991402;28;20372;-74
2022/09/05 13:55:52;;;;;;;0.00;0.00;;;31.30;81.80;;;;;;4992183;28;20085;-74
2022/09/05 13:58:38;;;;;;;0.00;0.00;;;31.70;81.30;;;;;;5010144;28;20057;-74
2022/09/05 14:01:32;;;;;;;0.03;0.03;;;32.50;80.80;;;;;;5010573;28;20111;-74
2022/09/05 14:04:27;;;;;;;0.00;0.00;;;32.40;80.70;;;;;;5009467;28;20054;-75
2022/09/05 14:07:15;;;;;;;0.00;0.00;;;32.50;80.20;;;;;;4993673;28;20679;-74
2022/09/05 14:10:08;;;;;;;0.00;0.00;;;32.40;81.90;;;;;;4991782;28;20129;-75
2022/09/05 14:12:37;;;;;;;;;;;32.00;78.50;;;;;;5008719;28;20058;-75